^^
Your Local Weather - Clay, NY Station Historical Data
Daily Summary for July 31, 2017 Units:  English    Metric   Both
« Previous Day
Next Day »
Daily Weekly Monthly Yearly Custom
  High: Low: Average:
Temperature: 82.7 °F 59.7 °F 70.9 °F
Dew Point: 67.6 °F 57.7 °F 62.5 °F
Humidity: 94% 54% 77%
Wind Speed: 3.0mph 0.0mph 0.7mph
Wind Gust: 8.0mph - -
Wind- - WSW
Pressure: 30.05 in 29.99 in -
Precipitation: 0.00 in    
Historical Graphs
 
 
Tabular Data for July 31, 2017
Time Temperature Dew Point Pressure Wind Wind Speed Wind Gust Humidity Rainfall Rate (Hourly) solar
00:02 62.6 °F 59.3 °F 30.02 in Calm     89% 0.00 in 0 W/m2
00:08 62.6 °F 59.3 °F 30.02 in Calm     89% 0.00 in 0 W/m2
00:14 62.5 °F 59.2 °F 30.02 in Calm     89% 0.00 in 0 W/m2
00:20 62.6 °F 59.6 °F 30.02 in Calm     90% 0.00 in 0 W/m2
00:26 62.6 °F 59.6 °F 30.02 in Calm     90% 0.00 in 0 W/m2
00:32 62.6 °F 59.6 °F 30.02 in Calm     90% 0.00 in 0 W/m2
00:38 62.6 °F 59.6 °F 30.01 in Calm     90% 0.00 in 0 W/m2
00:44 62.5 °F 59.5 °F 30.01 in Calm     90% 0.00 in 0 W/m2
00:50 62.4 °F 59.4 °F 30.01 in Calm     90% 0.00 in 0 W/m2
00:56 62.4 °F 59.7 °F 30.01 in Calm     91% 0.00 in 0 W/m2
01:02 62.4 °F 59.7 °F 30.01 in Calm     91% 0.00 in 0 W/m2
01:08 62.3 °F 59.3 °F 30.01 in Calm     90% 0.00 in 0 W/m2
01:14 62.2 °F 59.5 °F 30.01 in Calm     91% 0.00 in 0 W/m2
01:20 62.1 °F 59.4 °F 30.01 in Calm     91% 0.00 in 0 W/m2
01:26 62.0 °F 59.3 °F 30.01 in Calm     91% 0.00 in 0 W/m2
01:32 62.0 °F 59.3 °F 30.01 in Calm     91% 0.00 in 0 W/m2
01:38 61.9 °F 59.2 °F 30.01 in Calm     91% 0.00 in 0 W/m2
01:44 61.7 °F 59.0 °F 30.01 in Calm     91% 0.00 in 0 W/m2
01:50 61.7 °F 59.0 °F 30.01 in Calm     91% 0.00 in 0 W/m2
01:56 61.7 °F 59.4 °F 30.01 in Calm     92% 0.00 in 0 W/m2
02:02 61.6 °F 59.3 °F 30.01 in Calm     92% 0.00 in 0 W/m2
02:08 61.5 °F 59.2 °F 30.01 in Calm     92% 0.00 in 0 W/m2
02:14 61.4 °F 59.1 °F 30.01 in Calm     92% 0.00 in 0 W/m2
02:20 61.1 °F 58.8 °F 30.01 in Calm     92% 0.00 in 0 W/m2
02:26 60.9 °F 58.6 °F 30.01 in Calm     92% 0.00 in 0 W/m2
02:32 60.7 °F 58.4 °F 30.02 in Calm     92% 0.00 in 0 W/m2
02:38 60.8 °F 58.5 °F 30.02 in Calm     92% 0.00 in 0 W/m2
02:44 60.7 °F 58.4 °F 30.01 in Calm     92% 0.00 in 0 W/m2
02:50 60.6 °F 58.3 °F 30.01 in Calm     92% 0.00 in 0 W/m2
02:56 60.4 °F 58.1 °F 30.02 in Calm     92% 0.00 in 0 W/m2
03:02 60.4 °F 58.1 °F 30.02 in Calm     92% 0.00 in 0 W/m2
03:08 60.5 °F 58.2 °F 30.02 in Calm     92% 0.00 in 0 W/m2
03:14 60.5 °F 58.2 °F 30.02 in Calm     92% 0.00 in 0 W/m2
03:20 60.6 °F 58.6 °F 30.02 in Calm     93% 0.00 in 0 W/m2
03:26 60.5 °F 58.5 °F 30.02 in Calm     93% 0.00 in 0 W/m2
03:32 60.3 °F 58.3 °F 30.02 in Calm     93% 0.00 in 0 W/m2
03:38 60.1 °F 58.1 °F 30.02 in Calm     93% 0.00 in 0 W/m2
03:44 60.3 °F 58.3 °F 30.02 in Calm     93% 0.00 in 0 W/m2
03:50 60.5 °F 58.5 °F 30.02 in Calm     93% 0.00 in 0 W/m2
03:56 60.3 °F 58.3 °F 30.02 in Calm     93% 0.00 in 0 W/m2
04:02 60.5 °F 58.5 °F 30.02 in Calm     93% 0.00 in 0 W/m2
04:08 60.4 °F 58.4 °F 30.02 in Calm     93% 0.00 in 0 W/m2
04:14 60.4 °F 58.4 °F 30.02 in Calm     93% 0.00 in 0 W/m2
04:20 60.2 °F 58.2 °F 30.01 in Calm     93% 0.00 in 0 W/m2
04:26 60.1 °F 58.1 °F 30.02 in Calm     93% 0.00 in 0 W/m2
04:32 60.1 °F 58.1 °F 30.01 in Calm     93% 0.00 in 0 W/m2
04:38 59.9 °F 57.9 °F 30.02 in Calm     93% 0.00 in 0 W/m2
04:44 59.9 °F 57.9 °F 30.02 in Calm     93% 0.00 in 0 W/m2
04:50 59.8 °F 57.8 °F 30.01 in Calm     93% 0.00 in 0 W/m2
04:56 59.7 °F 57.7 °F 30.01 in Calm     93% 0.00 in 0 W/m2
05:02 59.8 °F 57.8 °F 30.01 in Calm     93% 0.00 in 0 W/m2
05:08 59.9 °F 57.9 °F 30.02 in Calm     93% 0.00 in 0 W/m2
05:14 60.1 °F 58.1 °F 30.02 in Calm   1.0 mph 93% 0.00 in 0 W/m2
05:20 60.5 °F 58.8 °F 30.02 in Calm     94% 0.00 in 0 W/m2
05:26 60.7 °F 58.7 °F 30.02 in Calm   1.0 mph 93% 0.00 in 0 W/m2
05:32 60.9 °F 58.9 °F 30.02 in Calm     93% 0.00 in 0 W/m2
05:38 60.9 °F 58.9 °F 30.02 in Calm     93% 0.00 in 0 W/m2
05:44 60.8 °F 58.8 °F 30.02 in Calm     93% 0.00 in 0 W/m2
05:46 60.7 °F 58.7 °F 30.02 in Calm     93% 0.00 in 5 W/m2
05:52 60.6 °F 58.6 °F 30.02 in Calm     93% 0.00 in 5 W/m2
05:58 60.5 °F 58.5 °F 30.02 in Calm     93% 0.00 in 7 W/m2
06:04 60.4 °F 58.4 °F 30.02 in Calm     93% 0.00 in 9 W/m2
06:10 60.3 °F 58.3 °F 30.03 in Calm     93% 0.00 in 14 W/m2
06:16 60.3 °F 58.3 °F 30.03 in Calm     93% 0.00 in 19 W/m2
06:22 60.2 °F 58.2 °F 30.04 in Calm     93% 0.00 in 21 W/m2
06:28 60.3 °F 58.3 °F 30.04 in Calm     93% 0.00 in 25 W/m2
06:34 60.4 °F 58.4 °F 30.04 in Calm     93% 0.00 in 25 W/m2
06:40 60.5 °F 58.5 °F 30.04 in Calm     93% 0.00 in 42 W/m2
06:48 61.0 °F 59.3 °F 30.04 in Calm     94% 0.00 in 86 W/m2
06:54 61.5 °F 59.8 °F 30.03 in Calm   2.0 mph 94% 0.00 in 70 W/m2
07:00 62.0 °F 60.3 °F 30.04 in Calm     94% 0.00 in 127 W/m2
07:06 62.6 °F 60.8 °F 30.04 in Calm     94% 0.00 in 148 W/m2
07:12 63.1 °F 61.3 °F 30.04 in Calm     94% 0.00 in 148 W/m2
07:18 63.6 °F 61.5 °F 30.04 in Calm   1.0 mph 93% 0.00 in 162 W/m2
07:24 64.0 °F 61.6 °F 30.04 in Calm     92% 0.00 in 185 W/m2
07:30 64.7 °F 62.3 °F 30.05 in Calm     92% 0.00 in 211 W/m2
07:36 65.2 °F 62.2 °F 30.05 in Calm     90% 0.00 in 225 W/m2
07:42 65.9 °F 62.2 °F 30.05 in Calm     88% 0.00 in 243 W/m2
07:48 66.4 °F 62.1 °F 30.05 in SW 1.0 mph 1.0 mph 86% 0.00 in 260 W/m2
07:54 66.8 °F 62.1 °F 30.04 in SW 2.0 mph 2.0 mph 85% 0.00 in 278 W/m2
08:00 67.2 °F 62.5 °F 30.04 in WSW 1.0 mph 1.0 mph 85% 0.00 in 302 W/m2
08:06 67.7 °F 62.7 °F 30.04 in West 1.0 mph 4.0 mph 84% 0.00 in 323 W/m2
08:12 68.1 °F 62.4 °F 30.04 in SW 1.0 mph 2.0 mph 82% 0.00 in 339 W/m2
08:18 68.5 °F 62.8 °F 30.05 in WSW 2.0 mph 2.0 mph 82% 0.00 in 355 W/m2
08:24 68.8 °F 62.7 °F 30.04 in SW 1.0 mph 3.0 mph 81% 0.00 in 369 W/m2
08:30 69.0 °F 62.6 °F 30.04 in SW 2.0 mph 2.0 mph 80% 0.00 in 388 W/m2
08:36 69.3 °F 62.9 °F 30.04 in NNW 2.0 mph 2.0 mph 80% 0.00 in 406 W/m2
08:42 69.6 °F 62.8 °F 30.04 in SSW 1.0 mph 2.0 mph 79% 0.00 in 425 W/m2
08:48 69.9 °F 63.1 °F 30.04 in SW 2.0 mph 5.0 mph 79% 0.00 in 445 W/m2
08:56 70.7 °F 63.5 °F 30.05 in NNW 1.0 mph 4.0 mph 78% 0.00 in 469 W/m2
09:02 71.0 °F 62.7 °F 30.05 in SW 1.0 mph 3.0 mph 75% 0.00 in 490 W/m2
09:08 71.4 °F 63.8 °F 30.05 in SW 1.0 mph 3.0 mph 77% 0.00 in 508 W/m2
09:14 71.7 °F 62.6 °F 30.04 in WSW 1.0 mph 3.0 mph 73% 0.00 in 524 W/m2
09:20 72.0 °F 62.5 °F 30.04 in SW 1.0 mph 1.0 mph 72% 0.00 in 541 W/m2
09:26 72.4 °F 62.9 °F 30.04 in WSW 1.0 mph 1.0 mph 72% 0.00 in 559 W/m2
09:32 72.9 °F 62.5 °F 30.05 in SW 1.0 mph 2.0 mph 70% 0.00 in 578 W/m2
09:38 73.0 °F 63.8 °F 30.04 in SW 2.0 mph 2.0 mph 73% 0.00 in 596 W/m2
09:44 73.4 °F 62.6 °F 30.05 in WSW 1.0 mph 5.0 mph 69% 0.00 in 612 W/m2
09:50 73.6 °F 63.6 °F 30.05 in SW 1.0 mph 3.0 mph 71% 0.00 in 628 W/m2
09:56 74.0 °F 63.6 °F 30.05 in SW 1.0 mph 3.0 mph 70% 0.00 in 645 W/m2
10:02 74.2 °F 62.5 °F 30.04 in SW 2.0 mph 7.0 mph 67% 0.00 in 664 W/m2
10:08 74.7 °F 63.9 °F 30.04 in WSW 2.0 mph 7.0 mph 69% 0.00 in 680 W/m2
10:14 75.0 °F 63.3 °F 30.05 in SW 1.0 mph 1.0 mph 67% 0.00 in 696 W/m2
10:20 75.2 °F 63.1 °F 30.04 in WNW 2.0 mph 3.0 mph 66% 0.00 in 714 W/m2
10:26 75.8 °F 63.6 °F 30.04 in West 2.0 mph 4.0 mph 66% 0.00 in 729 W/m2
10:32 76.3 °F 63.2 °F 30.04 in SSW 2.0 mph 3.0 mph 64% 0.00 in 744 W/m2
10:38 75.7 °F 62.2 °F 30.04 in West 2.0 mph 5.0 mph 63% 0.00 in 756 W/m2
10:44 75.9 °F 61.9 °F 30.04 in SW 3.0 mph 4.0 mph 62% 0.00 in 768 W/m2
10:50 76.9 °F 63.8 °F 30.04 in SSW 2.0 mph 2.0 mph 64% 0.00 in 779 W/m2
10:56 77.3 °F 62.3 °F 30.04 in WSW 1.0 mph 3.0 mph 60% 0.00 in 795 W/m2
11:02 77.0 °F 62.0 °F 30.04 in SW 1.0 mph 1.0 mph 60% 0.00 in 807 W/m2
11:08 77.2 °F 61.8 °F 30.04 in SW 1.0 mph 6.0 mph 59% 0.00 in 814 W/m2
11:14 76.7 °F 62.7 °F 30.04 in SW 3.0 mph 3.0 mph 62% 0.00 in 823 W/m2
11:20 77.7 °F 64.1 °F 30.04 in SW 2.0 mph 2.0 mph 63% 0.00 in 826 W/m2
11:26 77.8 °F 62.8 °F 30.04 in SW 1.0 mph 4.0 mph 60% 0.00 in 842 W/m2
11:32 77.8 °F 65.1 °F 30.04 in WSW 2.0 mph 2.0 mph 65% 0.00 in 851 W/m2
11:36 77.6 °F 63.5 °F 30.04 in WSW 2.0 mph 2.0 mph 62% 0.00 in 858 W/m2
11:42 78.3 °F 64.2 °F 30.04 in WSW 1.0 mph 2.0 mph 62% 0.00 in 861 W/m2
11:48 78.5 °F 63.5 °F 30.03 in West 1.0 mph 2.0 mph 60% 0.00 in 870 W/m2
11:54 78.5 °F 64.4 °F 30.03 in SW 1.0 mph 7.0 mph 62% 0.00 in 877 W/m2
12:00 79.1 °F 64.5 °F 30.04 in NW 2.0 mph 2.0 mph 61% 0.00 in 884 W/m2
12:06 79.0 °F 64.4 °F 30.03 in SW 1.0 mph 6.0 mph 61% 0.00 in 882 W/m2
12:12 78.6 °F 63.6 °F 30.03 in SW 3.0 mph 3.0 mph 60% 0.00 in 889 W/m2
12:18 79.9 °F 65.7 °F 30.03 in NW 2.0 mph 3.0 mph 62% 0.00 in 896 W/m2
12:26 78.8 °F 64.2 °F 30.03 in WSW 1.0 mph 3.0 mph 61% 0.00 in 896 W/m2
12:32 79.3 °F 65.6 °F 30.03 in NNW 1.0 mph 3.0 mph 63% 0.00 in 905 W/m2
12:38 79.5 °F 64.9 °F 30.03 in SSW 2.0 mph 3.0 mph 61% 0.00 in 909 W/m2
12:44 79.7 °F 64.6 °F 30.03 in SW 1.0 mph 2.0 mph 60% 0.00 in 930 W/m2
12:50 79.3 °F 64.7 °F 30.03 in ESE 2.0 mph 2.0 mph 61% 0.00 in 942 W/m2
12:56 80.2 °F 65.5 °F 30.03 in ENE 1.0 mph 2.0 mph 61% 0.00 in 939 W/m2
13:02 80.1 °F 64.5 °F 30.02 in NW 1.0 mph 3.0 mph 59% 0.00 in 937 W/m2
13:08 80.3 °F 64.7 °F 30.02 in NNW 2.0 mph 4.0 mph 59% 0.00 in 939 W/m2
13:14 79.5 °F 65.3 °F 30.02 in SW 1.0 mph 4.0 mph 62% 0.00 in 965 W/m2
13:20 80.1 °F 65.4 °F 30.02 in NW 1.0 mph 1.0 mph 61% 0.00 in 976 W/m2
13:26 80.0 °F 66.3 °F 30.02 in WSW 1.0 mph 3.0 mph 63% 0.00 in 967 W/m2
13:32 80.9 °F 66.2 °F 30.02 in WNW 1.0 mph 1.0 mph 61% 0.00 in 1021 W/m2
13:38 80.5 °F 64.4 °F 30.02 in SSW 1.0 mph 3.0 mph 58% 0.00 in 944 W/m2
13:44 80.8 °F 65.1 °F 30.02 in SW 1.0 mph 2.0 mph 59% 0.00 in 870 W/m2
13:50 80.8 °F 64.1 °F 30.02 in NW 1.0 mph 1.0 mph 57% 0.00 in 432 W/m2
13:56 81.9 °F 65.7 °F 30.02 in NW 1.0 mph 2.0 mph 58% 0.00 in 1034 W/m2
14:02 81.5 °F 65.8 °F 30.01 in WSW 1.0 mph 2.0 mph 59% 0.00 in 886 W/m2
14:08 82.0 °F 66.7 °F 30.01 in NW 1.0 mph 2.0 mph 60% 0.00 in 1041 W/m2
14:14 82.2 °F 67.4 °F 30.01 in WNW 1.0 mph 1.0 mph 61% 0.00 in 1037 W/m2
14:20 81.5 °F 64.3 °F 30.01 in NW 1.0 mph 1.0 mph 56% 0.00 in 243 W/m2
14:26 80.9 °F 64.2 °F 30.01 in North 1.0 mph 3.0 mph 57% 0.00 in 258 W/m2
14:32 81.1 °F 66.4 °F 30.00 in NNW 2.0 mph 3.0 mph 61% 0.00 in 969 W/m2
14:38 81.5 °F 65.3 °F 30.00 in NNW 2.0 mph 5.0 mph 58% 0.00 in 243 W/m2
14:44 81.4 °F 64.7 °F 30.00 in NNW 2.0 mph 2.0 mph 57% 0.00 in 1014 W/m2
14:50 81.9 °F 65.7 °F 30.00 in NNW 1.0 mph 1.0 mph 58% 0.00 in 958 W/m2
14:56 81.6 °F 65.9 °F 30.00 in NE 1.0 mph 2.0 mph 59% 0.00 in 211 W/m2
15:02 80.9 °F 64.2 °F 30.00 in NNW 1.0 mph 3.0 mph 57% 0.00 in 898 W/m2
15:08 80.8 °F 63.6 °F 30.00 in NNW 1.0 mph 3.0 mph 56% 0.00 in 837 W/m2
15:14 81.4 °F 64.7 °F 30.00 in WNW 2.0 mph 3.0 mph 57% 0.00 in 814 W/m2
15:20 82.3 °F 64.5 °F 30.00 in NNW 2.0 mph 6.0 mph 55% 0.00 in 796 W/m2
15:26 82.7 °F 66.4 °F 30.00 in North 1.0 mph 6.0 mph 58% 0.00 in 803 W/m2
15:32 81.9 °F 63.6 °F 30.00 in NNW 2.0 mph 5.0 mph 54% 0.00 in 775 W/m2
15:38 81.4 °F 63.2 °F 30.00 in NNW 2.0 mph 8.0 mph 54% 0.00 in 770 W/m2
15:44 81.7 °F 64.0 °F 30.00 in WSW 3.0 mph 3.0 mph 55% 0.00 in 754 W/m2
15:50 82.4 °F 67.6 °F 30.00 in NW 2.0 mph 4.0 mph 61% 0.00 in 733 W/m2
15:56 82.1 °F 63.8 °F 30.00 in NE 2.0 mph 4.0 mph 54% 0.00 in 735 W/m2
16:02 82.0 °F 64.2 °F 30.00 in North 2.0 mph 2.0 mph 55% 0.00 in 696 W/m2
16:08 81.8 °F 65.6 °F 30.00 in WNW 2.0 mph 3.0 mph 58% 0.00 in 682 W/m2
16:14 82.0 °F 64.8 °F 30.00 in NNW 2.0 mph 5.0 mph 56% 0.00 in 666 W/m2
16:20 81.9 °F 64.7 °F 30.00 in North 3.0 mph 3.0 mph 56% 0.00 in 649 W/m2
16:26 81.7 °F 64.5 °F 30.00 in WSW 3.0 mph 4.0 mph 56% 0.00 in 631 W/m2
16:32 81.7 °F 65.5 °F 30.00 in NNW 2.0 mph 3.0 mph 58% 0.00 in 622 W/m2
16:38 82.1 °F 64.8 °F 30.00 in NNW 1.0 mph 3.0 mph 56% 0.00 in 603 W/m2
16:44 81.8 °F 65.6 °F 30.00 in NW 1.0 mph 3.0 mph 58% 0.00 in 587 W/m2
16:50 81.5 °F 64.8 °F 29.99 in NW 1.0 mph 1.0 mph 57% 0.00 in 568 W/m2
16:56 81.3 °F 64.6 °F 29.99 in NNW 2.0 mph 3.0 mph 57% 0.00 in 506 W/m2
17:02 81.3 °F 64.6 °F 29.99 in NNW 1.0 mph 1.0 mph 57% 0.00 in 90 W/m2
17:08 80.7 °F 65.5 °F 29.99 in NNW 1.0 mph 1.0 mph 60% 0.00 in 100 W/m2
17:14 80.6 °F 64.9 °F 29.99 in NW 1.0 mph 4.0 mph 59% 0.00 in 69 W/m2
17:20 80.5 °F 65.8 °F 29.99 in WNW 1.0 mph 1.0 mph 61% 0.00 in 69 W/m2
17:26 80.4 °F 64.8 °F 29.99 in NW 1.0 mph 1.0 mph 59% 0.00 in 67 W/m2
17:32 80.3 °F 65.1 °F 29.99 in NNW 2.0 mph 2.0 mph 60% 0.00 in 65 W/m2
17:38 79.9 °F 64.8 °F 29.99 in NNW 3.0 mph 3.0 mph 60% 0.00 in 67 W/m2
17:44 79.7 °F 64.6 °F 29.99 in NNW 2.0 mph 4.0 mph 60% 0.00 in 62 W/m2
17:50 79.6 °F 64.5 °F 29.99 in NNW 1.0 mph 3.0 mph 60% 0.00 in 62 W/m2
17:56 79.6 °F 65.4 °F 29.99 in WNW 2.0 mph 3.0 mph 62% 0.00 in 60 W/m2
18:03 79.5 °F 64.9 °F 29.99 in WNW 1.0 mph 2.0 mph 61% 0.00 in 58 W/m2
18:08 79.4 °F 64.8 °F 29.99 in Calm   4.0 mph 61% 0.00 in 56 W/m2
18:14 79.2 °F 65.1 °F 29.99 in North 1.0 mph 4.0 mph 62% 0.00 in 54 W/m2
18:20 79.1 °F 65.4 °F 29.99 in North 1.0 mph 1.0 mph 63% 0.00 in 54 W/m2
18:26 79.0 °F 64.4 °F 29.99 in Calm   2.0 mph 61% 0.00 in 51 W/m2
18:32 78.9 °F 65.2 °F 29.99 in North 1.0 mph 1.0 mph 63% 0.00 in 49 W/m2
18:38 78.9 °F 65.2 °F 29.99 in West 1.0 mph 1.0 mph 63% 0.00 in 47 W/m2
18:44 78.8 °F 65.6 °F 29.99 in West 1.0 mph 1.0 mph 64% 0.00 in 47 W/m2
18:50 78.7 °F 65.5 °F 29.99 in Calm   1.0 mph 64% 0.00 in 44 W/m2
18:56 78.5 °F 64.9 °F 29.99 in Calm   3.0 mph 63% 0.00 in 44 W/m2
19:02 78.1 °F 64.9 °F 29.99 in WNW 1.0 mph 1.0 mph 64% 0.00 in 44 W/m2
19:08 77.9 °F 65.6 °F 29.99 in Calm   1.0 mph 66% 0.00 in 44 W/m2
19:14 77.7 °F 65.0 °F 29.99 in Calm     65% 0.00 in 40 W/m2
19:20 77.5 °F 64.8 °F 29.99 in Calm     65% 0.00 in 37 W/m2
19:26 77.4 °F 65.1 °F 29.99 in WNW 1.0 mph 1.0 mph 66% 0.00 in 33 W/m2
19:32 77.3 °F 65.5 °F 30.00 in Calm     67% 0.00 in 30 W/m2
19:38 76.9 °F 65.1 °F 30.00 in Calm     67% 0.00 in 25 W/m2
19:44 76.6 °F 65.2 °F 30.00 in Calm     68% 0.00 in 18 W/m2
19:50 76.3 °F 65.8 °F 30.00 in Calm     70% 0.00 in 12 W/m2
19:56 75.8 °F 65.7 °F 30.00 in Calm     71% 0.00 in 9 W/m2
20:02 75.3 °F 65.6 °F 30.00 in Calm     72% 0.00 in 7 W/m2
20:08 74.7 °F 65.5 °F 30.00 in Calm     73% 0.00 in 5 W/m2
20:14 74.1 °F 64.9 °F 30.00 in Calm     73% 0.00 in 5 W/m2
20:20 73.6 °F 65.2 °F 30.00 in Calm     75% 0.00 in 0 W/m2
20:22 73.4 °F 65.4 °F 30.00 in Calm     76% 0.00 in 0 W/m2
20:28 72.9 °F 65.3 °F 30.00 in Calm     77% 0.00 in 0 W/m2
20:34 72.2 °F 64.6 °F 30.00 in Calm     77% 0.00 in 0 W/m2
20:40 71.7 °F 64.8 °F 30.00 in Calm     79% 0.00 in 0 W/m2
20:46 71.2 °F 65.1 °F 30.00 in Calm     81% 0.00 in 0 W/m2
20:52 70.7 °F 64.6 °F 30.00 in Calm     81% 0.00 in 0 W/m2
20:58 70.3 °F 64.2 °F 30.00 in Calm     81% 0.00 in 0 W/m2
21:04 70.0 °F 64.2 °F 30.00 in Calm     82% 0.00 in 0 W/m2
21:10 69.7 °F 64.0 °F 30.00 in Calm     82% 0.00 in 0 W/m2
21:16 69.2 °F 63.8 °F 30.00 in Calm     83% 0.00 in 0 W/m2
21:22 68.8 °F 63.8 °F 30.00 in Calm     84% 0.00 in 0 W/m2
21:28 68.6 °F 63.6 °F 30.00 in Calm     84% 0.00 in 0 W/m2
21:34 68.4 °F 64.0 °F 30.01 in Calm     86% 0.00 in 0 W/m2
21:40 68.0 °F 63.7 °F 30.01 in Calm     86% 0.00 in 0 W/m2
21:46 67.8 °F 63.5 °F 30.01 in Calm     86% 0.00 in 0 W/m2
21:52 67.7 °F 63.7 °F 30.01 in Calm     87% 0.00 in 0 W/m2
21:58 67.5 °F 63.8 °F 30.01 in Calm     88% 0.00 in 0 W/m2
22:04 67.3 °F 63.3 °F 30.01 in Calm     87% 0.00 in 0 W/m2
22:10 67.1 °F 63.4 °F 30.01 in Calm     88% 0.00 in 0 W/m2
22:16 66.9 °F 63.2 °F 30.01 in Calm     88% 0.00 in 0 W/m2
22:22 66.8 °F 63.5 °F 30.01 in Calm     89% 0.00 in 0 W/m2
22:28 66.7 °F 63.4 °F 30.01 in Calm     89% 0.00 in 0 W/m2
22:34 66.6 °F 63.3 °F 30.01 in Calm     89% 0.00 in 0 W/m2
22:40 66.4 °F 63.4 °F 30.01 in Calm     90% 0.00 in 0 W/m2
22:46 66.2 °F 62.9 °F 30.01 in Calm     89% 0.00 in 0 W/m2
22:52 66.1 °F 63.1 °F 30.01 in Calm     90% 0.00 in 0 W/m2
22:58 66.0 °F 63.0 °F 30.01 in Calm     90% 0.00 in 0 W/m2
23:04 65.8 °F 62.8 °F 30.01 in Calm     90% 0.00 in 0 W/m2
23:10 65.8 °F 62.8 °F 30.01 in Calm     90% 0.00 in 0 W/m2
23:16 65.7 °F 63.0 °F 30.01 in Calm     91% 0.00 in 0 W/m2
23:22 65.6 °F 62.9 °F 30.01 in Calm     91% 0.00 in 0 W/m2
23:28 65.5 °F 62.8 °F 30.01 in Calm     91% 0.00 in 0 W/m2
23:34 65.5 °F 62.8 °F 30.01 in Calm     91% 0.00 in 0 W/m2
23:40 65.4 °F 62.7 °F 30.01 in Calm     91% 0.00 in 0 W/m2
23:46 65.4 °F 62.7 °F 30.01 in Calm     91% 0.00 in 0 W/m2
23:52 65.3 °F 62.9 °F 30.01 in Calm     92% 0.00 in 0 W/m2
23:58 65.3 °F 62.9 °F 30.01 in Calm     92% 0.00 in 0 W/m2
Country Meadow, Clay, NY, USA
Compliments of Weather Underground - 2 mb